This is the latest recevied weather packets stored in our database for station/object SQ8NA-15. If no packets are shown the sender has not sent any weather packets the latest 10 day(s).
| Time | Temp. | Humidity | Pressure | Rain* | Wind** | Luminosity | Snow |
|---|---|---|---|---|---|---|---|
| 1787765003 | 17.22° C | 64% | 983.5 hPa | 0 mm | - | 4 W/m² | - |
| 1787763767 | 17.22° C | 65% | 983.3 hPa | 0 mm | - | 16 W/m² | - |
| 1787763154 | 17.78° C | 64% | 983.3 hPa | 0 mm | - | 24 W/m² | - |
| 1787762541 | 18.33° C | 61% | 983.2 hPa | 0 mm | - | 31 W/m² | - |
| 1787761327 | 18.89° C | 59% | 983.2 hPa | 0 mm | - | 43 W/m² | - |
| 1787760717 | 20° C | 56% | 983.2 hPa | 0 mm | - | 53 W/m² | - |
| 1787760103 | 20° C | 58% | 983.1 hPa | 0 mm | - | 55 W/m² | - |
| 1787758879 | 20.56° C | 53% | 983.1 hPa | 0 mm | - | 65 W/m² | - |
| 1787758267 | 20.56° C | 54% | 983.1 hPa | 0 mm | - | 70 W/m² | - |
| 1787757653 | 21.67° C | 51% | 983.1 hPa | 0 mm | - | 151 W/m² | - |
| 1787756441 | 21.67° C | 51% | 983.2 hPa | 0 mm | - | 220 W/m² | - |
| 1787755827 | 21.67° C | 51% | 983.1 hPa | 0 mm | - | 224 W/m² | - |
| 1787755217 | 21.67° C | 49% | 983.1 hPa | 0 mm | - | 295 W/m² | - |
| 1787753992 | 21.11° C | 50% | 983.3 hPa | 0 mm | - | 171 W/m² | - |
| 1787753377 | 21.67° C | 51% | 983.3 hPa | 0 mm | - | 334 W/m² | - |
| 1787752768 | 21.67° C | 49% | 983.4 hPa | 0 mm | - | 383 W/m² | - |
| 1787751542 | 21.67° C | 50% | 983.3 hPa | 0 mm | - | 425 W/m² | - |
| 1787750941 | 21.67° C | 53% | 983.2 hPa | 0 mm | - | 456 W/m² | - |
| 1787750328 | 21.67° C | 49% | 983.3 hPa | 0 mm | - | 538 W/m² | - |
| 1787749102 | 21.11° C | 49% | 983.1 hPa | 0 mm | - | 549 W/m² | - |
| 1787748493 | 21.11° C | 49% | 983.2 hPa | 0 mm | - | 573 W/m² | - |
| 1787747267 | 21.11° C | 52% | 983.3 hPa | 0 mm | - | 604 W/m² | - |
| 1787746666 | 20.56° C | 55% | 983.3 hPa | 0 mm | - | 411 W/m² | - |
| 1787746053 | 20° C | 55% | 983.3 hPa | 0 mm | - | 329 W/m² | - |
| 1787744816 | 20° C | 56% | 983.5 hPa | 0 mm | - | 208 W/m² | - |
* Rain latest hour (hover to see other rain measurements)
** Current wind speed in m/s (hover to see current wind gust speed)